sensor_id;sensor_type;location;lat;lon;timestamp;temperature;humidity
71184;DHT22;58887;51.980;4.464;2023-07-29T00:00:59;19.24;78.62
71184;DHT22;58887;51.980;4.464;2023-07-29T00:03:40;19.17;78.69
71184;DHT22;58887;51.980;4.464;2023-07-29T00:06:06;19.12;78.71
71184;DHT22;58887;51.980;4.464;2023-07-29T00:08:48;19.17;78.32
71184;DHT22;58887;51.980;4.464;2023-07-29T00:11:18;19.06;78.39
71184;DHT22;58887;51.980;4.464;2023-07-29T00:13:43;19.06;78.64
71184;DHT22;58887;51.980;4.464;2023-07-29T00:16:10;19.12;78.45
71184;DHT22;58887;51.980;4.464;2023-07-29T00:18:35;19.11;78.29
71184;DHT22;58887;51.980;4.464;2023-07-29T00:21:01;19.14;78.21
71184;DHT22;58887;51.980;4.464;2023-07-29T00:23:27;19.14;77.89
71184;DHT22;58887;51.980;4.464;2023-07-29T00:25:53;19.12;77.81
71184;DHT22;58887;51.980;4.464;2023-07-29T00:28:21;19.07;77.87
71184;DHT22;58887;51.980;4.464;2023-07-29T00:30:46;18.91;78.27
71184;DHT22;58887;51.980;4.464;2023-07-29T00:33:12;18.90;78.34
71184;DHT22;58887;51.980;4.464;2023-07-29T00:35:37;19.00;78.11
71184;DHT22;58887;51.980;4.464;2023-07-29T00:38:03;19.04;77.93
71184;DHT22;58887;51.980;4.464;2023-07-29T00:40:29;18.98;78.15
71184;DHT22;58887;51.980;4.464;2023-07-29T00:42:56;19.03;78.18
71184;DHT22;58887;51.980;4.464;2023-07-29T00:45:25;19.04;78.17
71184;DHT22;58887;51.980;4.464;2023-07-29T00:47:52;19.04;78.14
71184;DHT22;58887;51.980;4.464;2023-07-29T00:50:19;19.01;78.38
71184;DHT22;58887;51.980;4.464;2023-07-29T00:52:45;18.96;78.84
71184;DHT22;58887;51.980;4.464;2023-07-29T00:55:11;18.90;79.25
71184;DHT22;58887;51.980;4.464;2023-07-29T00:57:37;18.91;78.97
71184;DHT22;58887;51.980;4.464;2023-07-29T01:00:03;18.86;79.30
71184;DHT22;58887;51.980;4.464;2023-07-29T01:02:31;18.87;79.14
71184;DHT22;58887;51.980;4.464;2023-07-29T01:04:58;18.86;79.19
71184;DHT22;58887;51.980;4.464;2023-07-29T01:07:44;18.84;79.13
71184;DHT22;58887;51.980;4.464;2023-07-29T01:10:32;18.79;79.32
71184;DHT22;58887;51.980;4.464;2023-07-29T01:18:36;18.83;78.75
71184;DHT22;58887;51.980;4.464;2023-07-29T01:21:08;18.71;78.68
71184;DHT22;58887;51.980;4.464;2023-07-29T01:23:34;18.79;78.65
71184;DHT22;58887;51.980;4.464;2023-07-29T01:26:02;18.76;78.54
71184;DHT22;58887;51.980;4.464;2023-07-29T01:28:28;18.76;78.42
71184;DHT22;58887;51.980;4.464;2023-07-29T01:31:45;18.71;78.43
71184;DHT22;58887;51.980;4.464;2023-07-29T01:37:38;18.60;78.59
71184;DHT22;58887;51.980;4.464;2023-07-29T01:40:08;18.64;78.55
71184;DHT22;58887;51.980;4.464;2023-07-29T01:42:37;18.63;78.61
71184;DHT22;58887;51.980;4.464;2023-07-29T01:45:05;18.66;78.55
71184;DHT22;58887;51.980;4.464;2023-07-29T01:47:32;18.69;78.20
71184;DHT22;58887;51.980;4.464;2023-07-29T01:50:01;18.57;78.77
71184;DHT22;58887;51.980;4.464;2023-07-29T01:52:32;18.46;78.77
71184;DHT22;58887;51.980;4.464;2023-07-29T01:54:57;18.55;78.72
71184;DHT22;58887;51.980;4.464;2023-07-29T01:57:24;18.52;78.77
71184;DHT22;58887;51.980;4.464;2023-07-29T01:59:49;18.49;78.95
71184;DHT22;58887;51.980;4.464;2023-07-29T02:02:15;18.46;78.91
71184;DHT22;58887;51.980;4.464;2023-07-29T02:04:41;18.48;78.97
71184;DHT22;58887;51.980;4.464;2023-07-29T02:07:35;18.45;79.11
71184;DHT22;58887;51.980;4.464;2023-07-29T02:10:07;18.42;79.15
71184;DHT22;58887;51.980;4.464;2023-07-29T02:12:33;18.45;79.06
71184;DHT22;58887;51.980;4.464;2023-07-29T02:14:59;18.40;79.23
71184;DHT22;58887;51.980;4.464;2023-07-29T02:17:24;18.50;78.98
71184;DHT22;58887;51.980;4.464;2023-07-29T02:19:51;18.48;78.93
71184;DHT22;58887;51.980;4.464;2023-07-29T02:22:18;18.55;78.84
71184;DHT22;58887;51.980;4.464;2023-07-29T02:24:44;18.42;79.33
71184;DHT22;58887;51.980;4.464;2023-07-29T02:27:11;18.48;79.27
71184;DHT22;58887;51.980;4.464;2023-07-29T02:29:37;18.43;79.11
71184;DHT22;58887;51.980;4.464;2023-07-29T02:32:02;18.38;79.50
71184;DHT22;58887;51.980;4.464;2023-07-29T02:34:29;18.38;79.45
71184;DHT22;58887;51.980;4.464;2023-07-29T02:36:54;18.46;79.31
71184;DHT22;58887;51.980;4.464;2023-07-29T02:39:20;18.49;79.05
71184;DHT22;58887;51.980;4.464;2023-07-29T02:41:45;18.43;79.33
71184;DHT22;58887;51.980;4.464;2023-07-29T02:44:17;18.45;79.28
71184;DHT22;58887;51.980;4.464;2023-07-29T02:46:45;18.46;79.31
71184;DHT22;58887;51.980;4.464;2023-07-29T02:49:11;18.49;79.20
71184;DHT22;58887;51.980;4.464;2023-07-29T02:51:36;18.40;79.35
71184;DHT22;58887;51.980;4.464;2023-07-29T02:54:02;18.39;79.74
71184;DHT22;58887;51.980;4.464;2023-07-29T02:56:27;18.40;79.53
71184;DHT22;58887;51.980;4.464;2023-07-29T02:58:53;18.36;79.76
71184;DHT22;58887;51.980;4.464;2023-07-29T03:01:18;18.38;79.78
71184;DHT22;58887;51.980;4.464;2023-07-29T03:03:44;18.35;79.90
71184;DHT22;58887;51.980;4.464;2023-07-29T03:06:13;18.36;79.92
71184;DHT22;58887;51.980;4.464;2023-07-29T03:08:39;18.35;79.97
71184;DHT22;58887;51.980;4.464;2023-07-29T03:11:06;18.29;80.34
71184;DHT22;58887;51.980;4.464;2023-07-29T03:13:33;18.29;80.18
71184;DHT22;58887;51.980;4.464;2023-07-29T03:16:15;18.25;80.57
71184;DHT22;58887;51.980;4.464;2023-07-29T03:18:42;18.19;80.72
71184;DHT22;58887;51.980;4.464;2023-07-29T03:21:08;18.13;80.86
71184;DHT22;58887;51.980;4.464;2023-07-29T03:23:34;18.12;80.94
71184;DHT22;58887;51.980;4.464;2023-07-29T03:26:01;18.08;80.98
71184;DHT22;58887;51.980;4.464;2023-07-29T03:28:32;18.16;80.82
71184;DHT22;58887;51.980;4.464;2023-07-29T03:30:59;18.16;80.75
71184;DHT22;58887;51.980;4.464;2023-07-29T03:33:25;18.11;81.00
71184;DHT22;58887;51.980;4.464;2023-07-29T03:35:52;18.22;80.67
71184;DHT22;58887;51.980;4.464;2023-07-29T03:38:18;18.25;80.69
71184;DHT22;58887;51.980;4.464;2023-07-29T03:40:44;18.13;81.06
71184;DHT22;58887;51.980;4.464;2023-07-29T03:43:09;18.11;81.03
71184;DHT22;58887;51.980;4.464;2023-07-29T03:45:36;18.16;81.15
71184;DHT22;58887;51.980;4.464;2023-07-29T03:48:03;18.26;80.76
71184;DHT22;58887;51.980;4.464;2023-07-29T03:50:30;18.22;81.02
71184;DHT22;58887;51.980;4.464;2023-07-29T03:52:56;18.24;80.83
71184;DHT22;58887;51.980;4.464;2023-07-29T03:55:22;18.18;80.76
71184;DHT22;58887;51.980;4.464;2023-07-29T03:57:47;18.15;80.99
71184;DHT22;58887;51.980;4.464;2023-07-29T04:00:13;18.24;80.90
71184;DHT22;58887;51.980;4.464;2023-07-29T04:02:38;18.24;80.93
71184;DHT22;58887;51.980;4.464;2023-07-29T04:05:06;18.18;81.16
71184;DHT22;58887;51.980;4.464;2023-07-29T04:07:35;18.16;81.17
71184;DHT22;58887;51.980;4.464;2023-07-29T04:10:01;18.24;81.15
71184;DHT22;58887;51.980;4.464;2023-07-29T04:12:27;18.28;80.92
71184;DHT22;58887;51.980;4.464;2023-07-29T04:14:53;18.25;80.88
71184;DHT22;58887;51.980;4.464;2023-07-29T04:17:19;18.15;81.24
71184;DHT22;58887;51.980;4.464;2023-07-29T04:19:44;18.25;81.17
71184;DHT22;58887;51.980;4.464;2023-07-29T04:22:10;18.24;81.11
71184;DHT22;58887;51.980;4.464;2023-07-29T04:24:35;18.19;81.39
71184;DHT22;58887;51.980;4.464;2023-07-29T04:27:02;18.28;81.25
71184;DHT22;58887;51.980;4.464;2023-07-29T04:29:27;18.16;81.47
71184;DHT22;58887;51.980;4.464;2023-07-29T04:31:53;18.19;81.45
71184;DHT22;58887;51.980;4.464;2023-07-29T04:34:19;18.22;81.30
71184;DHT22;58887;51.980;4.464;2023-07-29T04:36:45;18.19;81.53
71184;DHT22;58887;51.980;4.464;2023-07-29T04:39:11;18.18;81.77
71184;DHT22;58887;51.980;4.464;2023-07-29T04:41:37;18.24;81.56
71184;DHT22;58887;51.980;4.464;2023-07-29T04:44:03;18.38;81.31
71184;DHT22;58887;51.980;4.464;2023-07-29T04:46:30;18.32;81.46
71184;DHT22;58887;51.980;4.464;2023-07-29T04:48:56;18.26;81.82
71184;DHT22;58887;51.980;4.464;2023-07-29T04:51:23;18.36;81.70
71184;DHT22;58887;51.980;4.464;2023-07-29T04:53:49;18.38;81.50
71184;DHT22;58887;51.980;4.464;2023-07-29T04:56:14;18.36;81.62
71184;DHT22;58887;51.980;4.464;2023-07-29T04:58:47;18.42;81.55
71184;DHT22;58887;51.980;4.464;2023-07-29T05:01:12;18.33;81.52
71184;DHT22;58887;51.980;4.464;2023-07-29T05:03:37;18.29;81.95
71184;DHT22;58887;51.980;4.464;2023-07-29T05:06:05;18.38;81.74
71184;DHT22;58887;51.980;4.464;2023-07-29T05:08:31;18.33;82.08
71184;DHT22;58887;51.980;4.464;2023-07-29T05:10:56;18.38;81.88
71184;DHT22;58887;51.980;4.464;2023-07-29T05:13:23;18.42;81.97
71184;DHT22;58887;51.980;4.464;2023-07-29T05:15:50;18.45;81.88
71184;DHT22;58887;51.980;4.464;2023-07-29T05:18:16;18.48;81.82
71184;DHT22;58887;51.980;4.464;2023-07-29T05:20:42;18.57;81.70
71184;DHT22;58887;51.980;4.464;2023-07-29T05:23:08;18.53;81.88
71184;DHT22;58887;51.980;4.464;2023-07-29T05:25:34;18.60;81.61
71184;DHT22;58887;51.980;4.464;2023-07-29T05:28:02;18.60;81.67
71184;DHT22;58887;51.980;4.464;2023-07-29T05:30:28;18.64;81.59
71184;DHT22;58887;51.980;4.464;2023-07-29T05:32:59;18.76;81.26
71184;DHT22;58887;51.980;4.464;2023-07-29T05:35:25;18.76;81.40
71184;DHT22;58887;51.980;4.464;2023-07-29T05:37:51;18.79;81.22
71184;DHT22;58887;51.980;4.464;2023-07-29T05:40:17;18.81;81.44
71184;DHT22;58887;51.980;4.464;2023-07-29T05:42:43;18.89;81.28
71184;DHT22;58887;51.980;4.464;2023-07-29T05:45:10;18.89;81.39
71184;DHT22;58887;51.980;4.464;2023-07-29T05:47:36;19.00;81.13
71184;DHT22;58887;51.980;4.464;2023-07-29T05:50:02;19.07;81.06
71184;DHT22;58887;51.980;4.464;2023-07-29T05:52:30;19.06;81.10
71184;DHT22;58887;51.980;4.464;2023-07-29T05:54:56;19.01;81.48
71184;DHT22;58887;51.980;4.464;2023-07-29T05:57:25;19.04;81.33
71184;DHT22;58887;51.980;4.464;2023-07-29T06:00:06;19.10;81.25
71184;DHT22;58887;51.980;4.464;2023-07-29T06:02:32;19.21;80.93
71184;DHT22;58887;51.980;4.464;2023-07-29T06:04:58;19.34;80.78
71184;DHT22;58887;51.980;4.464;2023-07-29T06:07:23;19.31;80.77
71184;DHT22;58887;51.980;4.464;2023-07-29T06:09:49;19.24;80.95
71184;DHT22;58887;51.980;4.464;2023-07-29T06:12:15;19.24;81.09
71184;DHT22;58887;51.980;4.464;2023-07-29T06:14:41;19.17;81.44
71184;DHT22;58887;51.980;4.464;2023-07-29T06:17:07;19.24;81.34
71184;DHT22;58887;51.980;4.464;2023-07-29T06:19:32;19.19;81.35
71184;DHT22;58887;51.980;4.464;2023-07-29T06:21:58;19.19;81.25
71184;DHT22;58887;51.980;4.464;2023-07-29T06:24:23;19.25;81.45
71184;DHT22;58887;51.980;4.464;2023-07-29T06:26:49;19.27;81.26
71184;DHT22;58887;51.980;4.464;2023-07-29T06:29:14;19.41;80.94
71184;DHT22;58887;51.980;4.464;2023-07-29T06:31:40;19.38;81.02
71184;DHT22;58887;51.980;4.464;2023-07-29T06:34:05;19.56;80.64
71184;DHT22;58887;51.980;4.464;2023-07-29T06:36:31;19.62;80.55
71184;DHT22;58887;51.980;4.464;2023-07-29T06:38:56;19.55;80.59
71184;DHT22;58887;51.980;4.464;2023-07-29T06:41:21;19.72;80.37
71184;DHT22;58887;51.980;4.464;2023-07-29T06:43:47;19.87;79.90
71184;DHT22;58887;51.980;4.464;2023-07-29T06:46:18;20.05;79.45
71184;DHT22;58887;51.980;4.464;2023-07-29T06:48:45;19.99;79.39
71184;DHT22;58887;51.980;4.464;2023-07-29T06:51:10;19.93;79.28
71184;DHT22;58887;51.980;4.464;2023-07-29T06:53:36;19.75;80.20
71184;DHT22;58887;51.980;4.464;2023-07-29T06:56:01;19.78;79.87
71184;DHT22;58887;51.980;4.464;2023-07-29T06:58:28;19.78;79.59
71184;DHT22;58887;51.980;4.464;2023-07-29T07:00:54;20.00;78.99
71184;DHT22;58887;51.980;4.464;2023-07-29T07:03:19;20.23;78.04
71184;DHT22;58887;51.980;4.464;2023-07-29T07:05:46;20.20;77.88
71184;DHT22;58887;51.980;4.464;2023-07-29T07:08:11;20.27;77.55
71184;DHT22;58887;51.980;4.464;2023-07-29T07:10:36;20.33;77.57
71184;DHT22;58887;51.980;4.464;2023-07-29T07:13:02;20.12;75.58
71184;DHT22;58887;51.980;4.464;2023-07-29T07:15:27;20.09;76.36
71184;DHT22;58887;51.980;4.464;2023-07-29T07:17:53;20.03;76.68
71184;DHT22;58887;51.980;4.464;2023-07-29T07:20:19;20.30;76.44
71184;DHT22;58887;51.980;4.464;2023-07-29T07:22:45;20.65;75.59
71184;DHT22;58887;51.980;4.464;2023-07-29T07:25:21;20.78;74.56
71184;DHT22;58887;51.980;4.464;2023-07-29T07:27:49;20.85;73.88
71184;DHT22;58887;51.980;4.464;2023-07-29T07:30:24;20.86;72.71
71184;DHT22;58887;51.980;4.464;2023-07-29T07:32:54;20.95;72.47
71184;DHT22;58887;51.980;4.464;2023-07-29T07:35:27;20.99;71.92
71184;DHT22;58887;51.980;4.464;2023-07-29T07:37:53;20.86;72.04
71184;DHT22;58887;51.980;4.464;2023-07-29T07:40:19;20.71;72.92
71184;DHT22;58887;51.980;4.464;2023-07-29T07:42:46;20.54;72.63
71184;DHT22;58887;51.980;4.464;2023-07-29T07:45:11;20.48;72.42
71184;DHT22;58887;51.980;4.464;2023-07-29T07:47:37;20.52;72.25
71184;DHT22;58887;51.980;4.464;2023-07-29T07:50:02;20.71;71.88
71184;DHT22;58887;51.980;4.464;2023-07-29T07:52:28;21.07;71.40
71184;DHT22;58887;51.980;4.464;2023-07-29T07:54:54;21.10;70.68
71184;DHT22;58887;51.980;4.464;2023-07-29T07:57:23;21.33;70.49
71184;DHT22;58887;51.980;4.464;2023-07-29T07:59:51;21.53;70.30
71184;DHT22;58887;51.980;4.464;2023-07-29T08:02:18;21.63;69.67
71184;DHT22;58887;51.980;4.464;2023-07-29T08:04:44;21.98;69.30
71184;DHT22;58887;51.980;4.464;2023-07-29T08:07:21;21.80;69.14
71184;DHT22;58887;51.980;4.464;2023-07-29T08:09:59;21.93;68.08
71184;DHT22;58887;51.980;4.464;2023-07-29T08:12:26;21.83;68.14
71184;DHT22;58887;51.980;4.464;2023-07-29T08:14:56;22.16;67.36
71184;DHT22;58887;51.980;4.464;2023-07-29T08:17:26;22.41;66.63
71184;DHT22;58887;51.980;4.464;2023-07-29T08:19:55;22.19;66.44
71184;DHT22;58887;51.980;4.464;2023-07-29T08:22:23;21.91;66.61
71184;DHT22;58887;51.980;4.464;2023-07-29T08:24:49;21.77;67.56
71184;DHT22;58887;51.980;4.464;2023-07-29T08:27:15;21.54;68.79
71184;DHT22;58887;51.980;4.464;2023-07-29T08:29:43;21.15;69.92
71184;DHT22;58887;51.980;4.464;2023-07-29T08:32:09;20.74;71.68
71184;DHT22;58887;51.980;4.464;2023-07-29T08:34:39;20.64;72.76
71184;DHT22;58887;51.980;4.464;2023-07-29T08:37:05;20.76;73.83
71184;DHT22;58887;51.980;4.464;2023-07-29T08:39:31;20.76;74.32
71184;DHT22;58887;51.980;4.464;2023-07-29T08:42:02;20.75;74.71
71184;DHT22;58887;51.980;4.464;2023-07-29T08:44:36;20.72;74.69
71184;DHT22;58887;51.980;4.464;2023-07-29T08:47:05;20.85;74.15
71184;DHT22;58887;51.980;4.464;2023-07-29T08:49:36;20.85;74.36
71184;DHT22;58887;51.980;4.464;2023-07-29T08:52:04;20.91;74.17
71184;DHT22;58887;51.980;4.464;2023-07-29T08:54:35;20.92;74.08
71184;DHT22;58887;51.980;4.464;2023-07-29T08:57:10;20.91;74.23
71184;DHT22;58887;51.980;4.464;2023-07-29T08:59:45;20.89;74.94
71184;DHT22;58887;51.980;4.464;2023-07-29T09:02:12;21.02;74.53
71184;DHT22;58887;51.980;4.464;2023-07-29T09:04:42;20.99;75.00
71184;DHT22;58887;51.980;4.464;2023-07-29T09:07:10;21.15;73.77
71184;DHT22;58887;51.980;4.464;2023-07-29T09:09:36;21.25;73.84
71184;DHT22;58887;51.980;4.464;2023-07-29T09:12:03;21.20;73.93
71184;DHT22;58887;51.980;4.464;2023-07-29T09:14:29;21.25;73.27
71184;DHT22;58887;51.980;4.464;2023-07-29T09:16:56;21.39;72.51
71184;DHT22;58887;51.980;4.464;2023-07-29T09:19:25;21.43;72.46
71184;DHT22;58887;51.980;4.464;2023-07-29T09:21:52;21.58;71.87
71184;DHT22;58887;51.980;4.464;2023-07-29T09:24:20;21.39;71.62
71184;DHT22;58887;51.980;4.464;2023-07-29T09:26:50;21.25;73.37
71184;DHT22;58887;51.980;4.464;2023-07-29T09:29:30;21.40;72.11
71184;DHT22;58887;51.980;4.464;2023-07-29T09:32:18;21.46;71.76
71184;DHT22;58887;51.980;4.464;2023-07-29T09:34:44;21.12;72.46
71184;DHT22;58887;51.980;4.464;2023-07-29T09:37:15;21.03;72.69
71184;DHT22;58887;51.980;4.464;2023-07-29T09:39:44;20.86;74.49
71184;DHT22;58887;51.980;4.464;2023-07-29T09:42:21;20.76;75.47
71184;DHT22;58887;51.980;4.464;2023-07-29T09:44:49;20.75;75.59
71184;DHT22;58887;51.980;4.464;2023-07-29T09:47:26;20.82;75.28
71184;DHT22;58887;51.980;4.464;2023-07-29T09:50:04;21.12;73.99
71184;DHT22;58887;51.980;4.464;2023-07-29T09:52:32;21.33;73.27
71184;DHT22;58887;51.980;4.464;2023-07-29T09:55:05;21.47;73.30
71184;DHT22;58887;51.980;4.464;2023-07-29T09:57:31;21.43;73.57
71184;DHT22;58887;51.980;4.464;2023-07-29T09:59:57;21.40;73.68
71184;DHT22;58887;51.980;4.464;2023-07-29T10:02:30;21.22;73.35
71184;DHT22;58887;51.980;4.464;2023-07-29T10:04:59;21.12;73.65
71184;DHT22;58887;51.980;4.464;2023-07-29T10:07:34;21.10;73.79
71184;DHT22;58887;51.980;4.464;2023-07-29T10:10:02;21.12;74.51
71184;DHT22;58887;51.980;4.464;2023-07-29T10:12:35;20.92;74.39
71184;DHT22;58887;51.980;4.464;2023-07-29T10:15:12;20.86;75.85
71184;DHT22;58887;51.980;4.464;2023-07-29T10:17:39;20.69;77.19
71184;DHT22;58887;51.980;4.464;2023-07-29T10:20:22;20.72;78.20
71184;DHT22;58887;51.980;4.464;2023-07-29T10:22:48;20.43;76.52
71184;DHT22;58887;51.980;4.464;2023-07-29T10:25:18;20.09;78.41
71184;DHT22;58887;51.980;4.464;2023-07-29T10:27:56;20.01;78.87
71184;DHT22;58887;51.980;4.464;2023-07-29T10:30:33;19.61;79.95
71184;DHT22;58887;51.980;4.464;2023-07-29T10:33:05;19.58;80.79
71184;DHT22;58887;51.980;4.464;2023-07-29T10:35:35;19.42;81.83
71184;DHT22;58887;51.980;4.464;2023-07-29T10:38:16;19.45;81.42
71184;DHT22;58887;51.980;4.464;2023-07-29T10:40:55;19.41;81.97
71184;DHT22;58887;51.980;4.464;2023-07-29T10:43:36;19.59;82.06
71184;DHT22;58887;51.980;4.464;2023-07-29T10:46:27;19.79;82.56
71184;DHT22;58887;51.980;4.464;2023-07-29T10:48:57;19.92;81.92
71184;DHT22;58887;51.980;4.464;2023-07-29T10:51:51;19.97;81.68
71184;DHT22;58887;51.980;4.464;2023-07-29T10:54:22;20.17;81.17
71184;DHT22;58887;51.980;4.464;2023-07-29T10:56:49;20.34;81.19
71184;DHT22;58887;51.980;4.464;2023-07-29T11:01:56;21.10;78.34
71184;DHT22;58887;51.980;4.464;2023-07-29T11:04:46;22.49;75.92
71184;DHT22;58887;51.980;4.464;2023-07-29T11:15:24;22.14;75.27
71184;DHT22;58887;51.980;4.464;2023-07-29T11:18:01;22.00;74.22
71184;DHT22;58887;51.980;4.464;2023-07-29T11:20:35;21.58;76.56
71184;DHT22;58887;51.980;4.464;2023-07-29T11:23:06;21.49;76.73
71184;DHT22;58887;51.980;4.464;2023-07-29T11:25:31;21.43;77.32
71184;DHT22;58887;51.980;4.464;2023-07-29T11:28:02;20.92;78.06
71184;DHT22;58887;51.980;4.464;2023-07-29T11:30:27;20.79;78.46
71184;DHT22;58887;51.980;4.464;2023-07-29T11:32:58;20.86;77.70
71184;DHT22;58887;51.980;4.464;2023-07-29T11:39:09;21.27;76.82
71184;DHT22;58887;51.980;4.464;2023-07-29T11:41:35;21.61;75.47
71184;DHT22;58887;51.980;4.464;2023-07-29T11:44:28;21.93;74.40
71184;DHT22;58887;51.980;4.464;2023-07-29T11:46:57;22.12;74.33
71184;DHT22;58887;51.980;4.464;2023-07-29T11:49:26;22.41;72.60
71184;DHT22;58887;51.980;4.464;2023-07-29T11:51:58;21.87;73.38
71184;DHT22;58887;51.980;4.464;2023-07-29T11:54:38;21.94;72.67
71184;DHT22;58887;51.980;4.464;2023-07-29T11:57:09;22.05;73.31
71184;DHT22;58887;51.980;4.464;2023-07-29T11:59:41;22.33;71.80
71184;DHT22;58887;51.980;4.464;2023-07-29T12:02:16;22.46;72.04
71184;DHT22;58887;51.980;4.464;2023-07-29T12:04:53;22.46;72.00
71184;DHT22;58887;51.980;4.464;2023-07-29T12:07:20;23.03;68.47
71184;DHT22;58887;51.980;4.464;2023-07-29T12:09:52;23.07;69.19
71184;DHT22;58887;51.980;4.464;2023-07-29T12:12:18;22.51;70.44
71184;DHT22;58887;51.980;4.464;2023-07-29T12:14:45;23.48;68.06
71184;DHT22;58887;51.980;4.464;2023-07-29T12:17:15;24.21;63.79
71184;DHT22;58887;51.980;4.464;2023-07-29T12:19:42;24.72;62.91
71184;DHT22;58887;51.980;4.464;2023-07-29T12:22:11;24.84;60.10
71184;DHT22;58887;51.980;4.464;2023-07-29T12:24:40;25.22;61.09
71184;DHT22;58887;51.980;4.464;2023-07-29T12:27:11;26.02;58.66
71184;DHT22;58887;51.980;4.464;2023-07-29T12:29:43;26.02;58.55
71184;DHT22;58887;51.980;4.464;2023-07-29T12:32:09;26.29;58.21
71184;DHT22;58887;51.980;4.464;2023-07-29T12:34:37;26.05;58.02
71184;DHT22;58887;51.980;4.464;2023-07-29T12:37:04;25.98;57.47
71184;DHT22;58887;51.980;4.464;2023-07-29T12:39:32;25.11;60.50
71184;DHT22;58887;51.980;4.464;2023-07-29T12:41:59;25.02;59.87
71184;DHT22;58887;51.980;4.464;2023-07-29T12:44:31;24.48;61.29
71184;DHT22;58887;51.980;4.464;2023-07-29T12:46:57;25.19;60.34
71184;DHT22;58887;51.980;4.464;2023-07-29T12:49:24;25.78;59.98
71184;DHT22;58887;51.980;4.464;2023-07-29T12:51:50;25.77;58.65
71184;DHT22;58887;51.980;4.464;2023-07-29T12:54:15;26.29;57.78
71184;DHT22;58887;51.980;4.464;2023-07-29T12:56:41;26.14;57.64
71184;DHT22;58887;51.980;4.464;2023-07-29T12:59:11;25.11;59.26
71184;DHT22;58887;51.980;4.464;2023-07-29T13:01:52;24.24;62.13
71184;DHT22;58887;51.980;4.464;2023-07-29T13:04:19;24.14;61.80
71184;DHT22;58887;51.980;4.464;2023-07-29T13:06:55;23.55;63.94
71184;DHT22;58887;51.980;4.464;2023-07-29T13:09:28;23.63;63.78
71184;DHT22;58887;51.980;4.464;2023-07-29T13:11:54;24.75;61.17
71184;DHT22;58887;51.980;4.464;2023-07-29T13:14:28;23.92;61.07
71184;DHT22;58887;51.980;4.464;2023-07-29T13:16:54;25.02;60.51
71184;DHT22;58887;51.980;4.464;2023-07-29T13:19:21;26.05;55.99
71184;DHT22;58887;51.980;4.464;2023-07-29T13:21:46;26.07;55.71
71184;DHT22;58887;51.980;4.464;2023-07-29T13:24:12;26.17;56.57
71184;DHT22;58887;51.980;4.464;2023-07-29T13:26:37;26.69;56.45
71184;DHT22;58887;51.980;4.464;2023-07-29T13:29:04;27.55;53.11
71184;DHT22;58887;51.980;4.464;2023-07-29T13:31:31;27.44;50.87
71184;DHT22;58887;51.980;4.464;2023-07-29T13:34:11;25.66;55.07
71184;DHT22;58887;51.980;4.464;2023-07-29T13:36:53;25.93;53.35
71184;DHT22;58887;51.980;4.464;2023-07-29T13:39:23;26.01;53.85
71184;DHT22;58887;51.980;4.464;2023-07-29T13:41:49;26.49;53.12
71184;DHT22;58887;51.980;4.464;2023-07-29T13:44:15;25.36;55.27
71184;DHT22;58887;51.980;4.464;2023-07-29T13:46:43;24.99;56.66
71184;DHT22;58887;51.980;4.464;2023-07-29T13:49:12;24.69;57.88
71184;DHT22;58887;51.980;4.464;2023-07-29T13:51:38;24.37;59.53
71184;DHT22;58887;51.980;4.464;2023-07-29T13:54:05;24.65;58.83
71184;DHT22;58887;51.980;4.464;2023-07-29T13:56:48;24.84;57.85
71184;DHT22;58887;51.980;4.464;2023-07-29T13:59:16;24.39;59.57
71184;DHT22;58887;51.980;4.464;2023-07-29T14:01:42;24.75;58.04
71184;DHT22;58887;51.980;4.464;2023-07-29T14:04:08;24.82;57.60
71184;DHT22;58887;51.980;4.464;2023-07-29T14:06:34;24.51;58.07
71184;DHT22;58887;51.980;4.464;2023-07-29T14:08:59;24.96;58.99
71184;DHT22;58887;51.980;4.464;2023-07-29T14:11:25;24.79;56.75
71184;DHT22;58887;51.980;4.464;2023-07-29T14:13:50;24.57;57.93
71184;DHT22;58887;51.980;4.464;2023-07-29T14:16:16;23.98;58.60
71184;DHT22;58887;51.980;4.464;2023-07-29T14:18:46;24.21;59.12
71184;DHT22;58887;51.980;4.464;2023-07-29T14:21:11;24.23;57.47
71184;DHT22;58887;51.980;4.464;2023-07-29T14:23:37;24.13;57.21
71184;DHT22;58887;51.980;4.464;2023-07-29T14:26:02;23.75;57.54
71184;DHT22;58887;51.980;4.464;2023-07-29T14:28:34;23.25;59.68
71184;DHT22;58887;51.980;4.464;2023-07-29T14:30:59;22.93;60.52
71184;DHT22;58887;51.980;4.464;2023-07-29T14:33:26;23.73;59.12
71184;DHT22;58887;51.980;4.464;2023-07-29T14:35:51;24.67;56.77
71184;DHT22;58887;51.980;4.464;2023-07-29T14:38:18;25.28;56.02
71184;DHT22;58887;51.980;4.464;2023-07-29T14:40:44;26.79;53.13
71184;DHT22;58887;51.980;4.464;2023-07-29T14:43:09;26.93;51.94
71184;DHT22;58887;51.980;4.464;2023-07-29T14:45:35;25.26;56.92
71184;DHT22;58887;51.980;4.464;2023-07-29T14:48:00;24.77;58.20
71184;DHT22;58887;51.980;4.464;2023-07-29T14:50:26;24.91;57.87
71184;DHT22;58887;51.980;4.464;2023-07-29T14:52:53;25.30;57.55
71184;DHT22;58887;51.980;4.464;2023-07-29T14:55:19;25.49;56.89
71184;DHT22;58887;51.980;4.464;2023-07-29T14:57:45;25.40;57.81
71184;DHT22;58887;51.980;4.464;2023-07-29T15:00:12;25.08;58.12
71184;DHT22;58887;51.980;4.464;2023-07-29T15:02:40;25.84;57.23
71184;DHT22;58887;51.980;4.464;2023-07-29T15:05:07;26.04;54.60
71184;DHT22;58887;51.980;4.464;2023-07-29T15:07:32;25.07;54.49
71184;DHT22;58887;51.980;4.464;2023-07-29T15:09:58;25.32;56.31
71184;DHT22;58887;51.980;4.464;2023-07-29T15:12:27;25.37;58.15
71184;DHT22;58887;51.980;4.464;2023-07-29T15:14:53;24.81;58.60
71184;DHT22;58887;51.980;4.464;2023-07-29T15:17:19;24.47;61.48
71184;DHT22;58887;51.980;4.464;2023-07-29T15:19:46;24.77;61.01
71184;DHT22;58887;51.980;4.464;2023-07-29T15:22:17;25.96;57.64
71184;DHT22;58887;51.980;4.464;2023-07-29T15:24:44;25.56;59.23
71184;DHT22;58887;51.980;4.464;2023-07-29T15:27:28;26.42;54.64
71184;DHT22;58887;51.980;4.464;2023-07-29T15:30:02;26.38;54.71
71184;DHT22;58887;51.980;4.464;2023-07-29T15:32:28;26.35;55.04
71184;DHT22;58887;51.980;4.464;2023-07-29T15:35:03;27.02;53.42
71184;DHT22;58887;51.980;4.464;2023-07-29T15:37:32;27.40;51.37
71184;DHT22;58887;51.980;4.464;2023-07-29T15:40:00;26.89;50.07
71184;DHT22;58887;51.980;4.464;2023-07-29T15:42:26;26.52;50.46
71184;DHT22;58887;51.980;4.464;2023-07-29T15:44:55;27.08;49.96
71184;DHT22;58887;51.980;4.464;2023-07-29T15:47:24;26.51;50.69
71184;DHT22;58887;51.980;4.464;2023-07-29T15:49:50;26.55;50.39
71184;DHT22;58887;51.980;4.464;2023-07-29T15:52:18;26.35;50.28
71184;DHT22;58887;51.980;4.464;2023-07-29T15:54:43;26.72;48.35
71184;DHT22;58887;51.980;4.464;2023-07-29T15:57:10;25.65;48.53
71184;DHT22;58887;51.980;4.464;2023-07-29T15:59:35;26.02;47.88
71184;DHT22;58887;51.980;4.464;2023-07-29T16:02:01;25.62;48.79